sensor_id;sensor_type;location;lat;lon;timestamp;temperature;humidity
9049;DHT22;4559;47.252;9.592;2022-08-20T00:00:23;16.90;99.90
9049;DHT22;4559;47.252;9.592;2022-08-20T00:02:52;16.90;99.90
9049;DHT22;4559;47.252;9.592;2022-08-20T00:05:26;16.90;99.90
9049;DHT22;4559;47.252;9.592;2022-08-20T00:07:52;16.80;99.90
9049;DHT22;4559;47.252;9.592;2022-08-20T00:10:18;16.80;99.90
9049;DHT22;4559;47.252;9.592;2022-08-20T00:12:46;16.80;99.90
9049;DHT22;4559;47.252;9.592;2022-08-20T00:15:13;16.90;99.90
9049;DHT22;4559;47.252;9.592;2022-08-20T00:17:40;16.90;99.90
9049;DHT22;4559;47.252;9.592;2022-08-20T00:20:08;16.90;99.90
9049;DHT22;4559;47.252;9.592;2022-08-20T00:22:35;16.80;99.90
9049;DHT22;4559;47.252;9.592;2022-08-20T00:25:02;16.80;99.90
9049;DHT22;4559;47.252;9.592;2022-08-20T00:27:28;16.80;99.90
9049;DHT22;4559;47.252;9.592;2022-08-20T00:29:53;16.80;99.90
9049;DHT22;4559;47.252;9.592;2022-08-20T00:32:19;16.80;99.90
9049;DHT22;4559;47.252;9.592;2022-08-20T00:34:45;16.80;99.90
9049;DHT22;4559;47.252;9.592;2022-08-20T00:37:11;16.80;99.90
9049;DHT22;4559;47.252;9.592;2022-08-20T00:39:36;16.80;99.90
9049;DHT22;4559;47.252;9.592;2022-08-20T00:42:03;16.80;99.90
9049;DHT22;4559;47.252;9.592;2022-08-20T00:44:28;16.80;99.90
9049;DHT22;4559;47.252;9.592;2022-08-20T00:46:54;16.80;99.90
9049;DHT22;4559;47.252;9.592;2022-08-20T00:49:29;16.80;99.90
9049;DHT22;4559;47.252;9.592;2022-08-20T00:52:03;16.70;99.90
9049;DHT22;4559;47.252;9.592;2022-08-20T00:54:38;16.70;99.90
9049;DHT22;4559;47.252;9.592;2022-08-20T00:57:10;16.70;99.90
9049;DHT22;4559;47.252;9.592;2022-08-20T00:59:37;16.70;99.90
9049;DHT22;4559;47.252;9.592;2022-08-20T01:02:10;16.80;99.90
9049;DHT22;4559;47.252;9.592;2022-08-20T01:04:36;16.80;99.90
9049;DHT22;4559;47.252;9.592;2022-08-20T01:07:04;16.80;99.90
9049;DHT22;4559;47.252;9.592;2022-08-20T01:09:30;16.80;99.90
9049;DHT22;4559;47.252;9.592;2022-08-20T01:11:56;16.80;99.90
9049;DHT22;4559;47.252;9.592;2022-08-20T01:14:22;16.70;99.90
9049;DHT22;4559;47.252;9.592;2022-08-20T01:17:03;16.70;99.90
9049;DHT22;4559;47.252;9.592;2022-08-20T01:19:46;16.70;99.90
9049;DHT22;4559;47.252;9.592;2022-08-20T01:22:19;16.80;99.90
9049;DHT22;4559;47.252;9.592;2022-08-20T01:25:09;16.70;99.90
9049;DHT22;4559;47.252;9.592;2022-08-20T01:27:37;16.80;99.90
9049;DHT22;4559;47.252;9.592;2022-08-20T01:30:05;16.70;99.90
9049;DHT22;4559;47.252;9.592;2022-08-20T01:32:31;16.70;99.90
9049;DHT22;4559;47.252;9.592;2022-08-20T01:34:56;16.70;99.90
9049;DHT22;4559;47.252;9.592;2022-08-20T01:37:22;16.80;99.90
9049;DHT22;4559;47.252;9.592;2022-08-20T01:39:47;16.80;99.90
9049;DHT22;4559;47.252;9.592;2022-08-20T01:42:26;16.80;99.90
9049;DHT22;4559;47.252;9.592;2022-08-20T01:44:54;16.80;99.90
9049;DHT22;4559;47.252;9.592;2022-08-20T01:47:25;16.80;99.90
9049;DHT22;4559;47.252;9.592;2022-08-20T01:49:55;16.80;99.90
9049;DHT22;4559;47.252;9.592;2022-08-20T01:52:41;16.80;99.90
9049;DHT22;4559;47.252;9.592;2022-08-20T01:55:09;16.80;99.90
9049;DHT22;4559;47.252;9.592;2022-08-20T01:57:35;16.80;99.90
9049;DHT22;4559;47.252;9.592;2022-08-20T02:00:05;16.80;99.90
9049;DHT22;4559;47.252;9.592;2022-08-20T02:02:32;16.80;99.90
9049;DHT22;4559;47.252;9.592;2022-08-20T02:04:57;16.80;99.90
9049;DHT22;4559;47.252;9.592;2022-08-20T02:07:25;16.80;99.90
9049;DHT22;4559;47.252;9.592;2022-08-20T02:09:51;16.80;99.90
9049;DHT22;4559;47.252;9.592;2022-08-20T02:12:17;16.80;99.90
9049;DHT22;4559;47.252;9.592;2022-08-20T02:14:48;16.80;99.90
9049;DHT22;4559;47.252;9.592;2022-08-20T02:17:16;16.80;99.90
9049;DHT22;4559;47.252;9.592;2022-08-20T02:19:48;16.80;99.90
9049;DHT22;4559;47.252;9.592;2022-08-20T02:22:47;16.80;99.90
9049;DHT22;4559;47.252;9.592;2022-08-20T02:25:14;16.80;99.90
9049;DHT22;4559;47.252;9.592;2022-08-20T02:27:43;16.80;99.90
9049;DHT22;4559;47.252;9.592;2022-08-20T02:30:14;16.80;99.90
9049;DHT22;4559;47.252;9.592;2022-08-20T02:32:40;16.80;99.90
9049;DHT22;4559;47.252;9.592;2022-08-20T02:35:07;16.80;99.90
9049;DHT22;4559;47.252;9.592;2022-08-20T02:37:35;16.80;99.90
9049;DHT22;4559;47.252;9.592;2022-08-20T02:40:04;16.80;99.90
9049;DHT22;4559;47.252;9.592;2022-08-20T02:42:32;16.80;99.90
9049;DHT22;4559;47.252;9.592;2022-08-20T02:44:58;16.80;99.90
9049;DHT22;4559;47.252;9.592;2022-08-20T02:47:24;16.70;99.90
9049;DHT22;4559;47.252;9.592;2022-08-20T02:49:52;16.80;99.90
9049;DHT22;4559;47.252;9.592;2022-08-20T02:52:19;16.80;99.90
9049;DHT22;4559;47.252;9.592;2022-08-20T02:54:45;16.80;99.90
9049;DHT22;4559;47.252;9.592;2022-08-20T02:57:18;16.80;99.90
9049;DHT22;4559;47.252;9.592;2022-08-20T02:59:47;16.80;99.90
9049;DHT22;4559;47.252;9.592;2022-08-20T03:02:13;16.80;99.90
9049;DHT22;4559;47.252;9.592;2022-08-20T03:04:40;16.70;99.90
9049;DHT22;4559;47.252;9.592;2022-08-20T03:07:05;16.70;99.90
9049;DHT22;4559;47.252;9.592;2022-08-20T03:09:31;16.70;99.90
9049;DHT22;4559;47.252;9.592;2022-08-20T03:11:57;16.70;99.90
9049;DHT22;4559;47.252;9.592;2022-08-20T03:14:23;16.70;99.90
9049;DHT22;4559;47.252;9.592;2022-08-20T03:16:49;16.70;99.90
9049;DHT22;4559;47.252;9.592;2022-08-20T03:19:15;16.70;99.90
9049;DHT22;4559;47.252;9.592;2022-08-20T03:21:40;16.70;99.90
9049;DHT22;4559;47.252;9.592;2022-08-20T03:24:06;16.70;99.90
9049;DHT22;4559;47.252;9.592;2022-08-20T03:26:32;16.70;99.90
9049;DHT22;4559;47.252;9.592;2022-08-20T03:28:58;16.60;99.90
9049;DHT22;4559;47.252;9.592;2022-08-20T03:31:23;16.60;99.90
9049;DHT22;4559;47.252;9.592;2022-08-20T03:33:49;16.60;99.90
9049;DHT22;4559;47.252;9.592;2022-08-20T03:36:15;16.60;99.90
9049;DHT22;4559;47.252;9.592;2022-08-20T03:38:40;16.50;99.90
9049;DHT22;4559;47.252;9.592;2022-08-20T03:41:06;16.50;99.90
9049;DHT22;4559;47.252;9.592;2022-08-20T03:43:32;16.50;99.90
9049;DHT22;4559;47.252;9.592;2022-08-20T03:45:58;16.50;99.90
9049;DHT22;4559;47.252;9.592;2022-08-20T03:48:24;16.50;99.90
9049;DHT22;4559;47.252;9.592;2022-08-20T03:50:50;16.50;99.90
9049;DHT22;4559;47.252;9.592;2022-08-20T03:53:16;16.40;99.90
9049;DHT22;4559;47.252;9.592;2022-08-20T03:55:45;16.40;99.90
9049;DHT22;4559;47.252;9.592;2022-08-20T03:58:13;16.40;99.90
9049;DHT22;4559;47.252;9.592;2022-08-20T04:00:46;16.30;99.90
9049;DHT22;4559;47.252;9.592;2022-08-20T04:03:12;16.30;99.90
9049;DHT22;4559;47.252;9.592;2022-08-20T04:05:39;16.30;99.90
9049;DHT22;4559;47.252;9.592;2022-08-20T04:08:11;16.20;99.90
9049;DHT22;4559;47.252;9.592;2022-08-20T04:10:38;16.20;99.90
9049;DHT22;4559;47.252;9.592;2022-08-20T04:13:05;16.20;99.90
9049;DHT22;4559;47.252;9.592;2022-08-20T04:15:32;16.20;99.90
9049;DHT22;4559;47.252;9.592;2022-08-20T04:17:58;16.10;99.90
9049;DHT22;4559;47.252;9.592;2022-08-20T04:20:24;16.10;99.90
9049;DHT22;4559;47.252;9.592;2022-08-20T04:22:55;16.10;99.90
9049;DHT22;4559;47.252;9.592;2022-08-20T04:25:22;16.10;99.90
9049;DHT22;4559;47.252;9.592;2022-08-20T04:27:48;16.10;99.90
9049;DHT22;4559;47.252;9.592;2022-08-20T04:30:17;16.10;99.90
9049;DHT22;4559;47.252;9.592;2022-08-20T04:32:43;16.00;99.90
9049;DHT22;4559;47.252;9.592;2022-08-20T04:35:13;16.10;99.90
9049;DHT22;4559;47.252;9.592;2022-08-20T04:37:42;16.00;99.90
9049;DHT22;4559;47.252;9.592;2022-08-20T04:40:11;16.00;99.90
9049;DHT22;4559;47.252;9.592;2022-08-20T04:42:56;16.00;99.90
9049;DHT22;4559;47.252;9.592;2022-08-20T04:45:22;16.00;99.90
9049;DHT22;4559;47.252;9.592;2022-08-20T04:47:49;16.00;99.90
9049;DHT22;4559;47.252;9.592;2022-08-20T04:50:16;15.90;99.90
9049;DHT22;4559;47.252;9.592;2022-08-20T04:52:42;16.00;99.90
9049;DHT22;4559;47.252;9.592;2022-08-20T04:55:08;16.00;99.90
9049;DHT22;4559;47.252;9.592;2022-08-20T04:57:34;16.00;99.90
9049;DHT22;4559;47.252;9.592;2022-08-20T05:00:09;16.00;99.90
9049;DHT22;4559;47.252;9.592;2022-08-20T05:02:37;16.00;99.90
9049;DHT22;4559;47.252;9.592;2022-08-20T05:05:07;16.00;99.90
9049;DHT22;4559;47.252;9.592;2022-08-20T05:07:38;16.00;99.90
9049;DHT22;4559;47.252;9.592;2022-08-20T05:10:05;16.00;99.90
9049;DHT22;4559;47.252;9.592;2022-08-20T05:12:31;16.00;99.90
9049;DHT22;4559;47.252;9.592;2022-08-20T05:14:57;16.00;99.90
9049;DHT22;4559;47.252;9.592;2022-08-20T05:17:23;16.10;99.90
9049;DHT22;4559;47.252;9.592;2022-08-20T05:19:50;16.10;99.90
9049;DHT22;4559;47.252;9.592;2022-08-20T05:22:16;16.20;99.90
9049;DHT22;4559;47.252;9.592;2022-08-20T05:24:43;16.20;99.90
9049;DHT22;4559;47.252;9.592;2022-08-20T05:27:09;16.30;99.90
9049;DHT22;4559;47.252;9.592;2022-08-20T05:29:34;16.30;99.90
9049;DHT22;4559;47.252;9.592;2022-08-20T05:32:00;16.30;99.90
9049;DHT22;4559;47.252;9.592;2022-08-20T05:34:27;16.40;99.90
9049;DHT22;4559;47.252;9.592;2022-08-20T05:36:53;16.40;99.90
9049;DHT22;4559;47.252;9.592;2022-08-20T05:39:21;16.40;99.90
9049;DHT22;4559;47.252;9.592;2022-08-20T05:41:49;16.50;99.90
9049;DHT22;4559;47.252;9.592;2022-08-20T05:44:16;16.50;99.90
9049;DHT22;4559;47.252;9.592;2022-08-20T05:46:43;16.60;99.90
9049;DHT22;4559;47.252;9.592;2022-08-20T05:49:15;16.60;99.90
9049;DHT22;4559;47.252;9.592;2022-08-20T05:51:42;16.60;99.90
9049;DHT22;4559;47.252;9.592;2022-08-20T05:54:08;16.70;99.90
9049;DHT22;4559;47.252;9.592;2022-08-20T05:56:34;16.80;99.90
9049;DHT22;4559;47.252;9.592;2022-08-20T05:59:03;16.80;99.90
9049;DHT22;4559;47.252;9.592;2022-08-20T06:01:31;16.80;99.90
9049;DHT22;4559;47.252;9.592;2022-08-20T06:03:57;16.90;99.90
9049;DHT22;4559;47.252;9.592;2022-08-20T06:06:41;16.90;99.90
9049;DHT22;4559;47.252;9.592;2022-08-20T06:09:07;17.00;99.90
9049;DHT22;4559;47.252;9.592;2022-08-20T06:11:33;17.00;99.90
9049;DHT22;4559;47.252;9.592;2022-08-20T06:13:59;17.10;99.90
9049;DHT22;4559;47.252;9.592;2022-08-20T06:16:25;17.10;99.90
9049;DHT22;4559;47.252;9.592;2022-08-20T06:18:50;17.20;99.90
9049;DHT22;4559;47.252;9.592;2022-08-20T06:21:16;17.20;99.90
9049;DHT22;4559;47.252;9.592;2022-08-20T06:23:42;17.20;99.90
9049;DHT22;4559;47.252;9.592;2022-08-20T06:26:07;17.30;99.90
9049;DHT22;4559;47.252;9.592;2022-08-20T06:28:34;17.40;99.90
9049;DHT22;4559;47.252;9.592;2022-08-20T06:30:59;17.40;99.90
9049;DHT22;4559;47.252;9.592;2022-08-20T06:33:25;17.60;99.90
9049;DHT22;4559;47.252;9.592;2022-08-20T06:35:51;17.70;99.90
9049;DHT22;4559;47.252;9.592;2022-08-20T06:38:16;17.80;99.90
9049;DHT22;4559;47.252;9.592;2022-08-20T06:40:42;17.90;99.90
9049;DHT22;4559;47.252;9.592;2022-08-20T06:43:08;18.00;99.90
9049;DHT22;4559;47.252;9.592;2022-08-20T06:45:34;18.20;99.90
9049;DHT22;4559;47.252;9.592;2022-08-20T06:48:09;18.20;99.90
9049;DHT22;4559;47.252;9.592;2022-08-20T06:50:38;18.30;99.90
9049;DHT22;4559;47.252;9.592;2022-08-20T06:53:13;18.40;99.90
9049;DHT22;4559;47.252;9.592;2022-08-20T06:55:43;18.50;99.90
9049;DHT22;4559;47.252;9.592;2022-08-20T06:58:11;18.60;99.90
9049;DHT22;4559;47.252;9.592;2022-08-20T07:00:39;18.70;99.90
9049;DHT22;4559;47.252;9.592;2022-08-20T07:03:05;18.80;99.90
9049;DHT22;4559;47.252;9.592;2022-08-20T07:05:33;19.00;99.90
9049;DHT22;4559;47.252;9.592;2022-08-20T07:07:59;19.10;99.90
9049;DHT22;4559;47.252;9.592;2022-08-20T07:10:26;19.20;99.90
9049;DHT22;4559;47.252;9.592;2022-08-20T07:12:52;19.30;99.90
9049;DHT22;4559;47.252;9.592;2022-08-20T07:15:20;19.40;99.90
9049;DHT22;4559;47.252;9.592;2022-08-20T07:17:54;19.60;99.90
9049;DHT22;4559;47.252;9.592;2022-08-20T07:20:21;19.70;99.90
9049;DHT22;4559;47.252;9.592;2022-08-20T07:22:47;19.80;99.90
9049;DHT22;4559;47.252;9.592;2022-08-20T07:25:15;19.90;99.90
9049;DHT22;4559;47.252;9.592;2022-08-20T07:27:42;20.00;99.90
9049;DHT22;4559;47.252;9.592;2022-08-20T07:30:12;20.10;99.90
9049;DHT22;4559;47.252;9.592;2022-08-20T07:32:57;20.30;99.90
9049;DHT22;4559;47.252;9.592;2022-08-20T07:35:22;20.60;99.90
9049;DHT22;4559;47.252;9.592;2022-08-20T07:37:50;20.90;99.90
9049;DHT22;4559;47.252;9.592;2022-08-20T07:40:24;21.10;99.90
9049;DHT22;4559;47.252;9.592;2022-08-20T07:42:58;21.30;99.90
9049;DHT22;4559;47.252;9.592;2022-08-20T07:45:26;21.40;99.90
9049;DHT22;4559;47.252;9.592;2022-08-20T07:47:52;21.40;99.90
9049;DHT22;4559;47.252;9.592;2022-08-20T07:50:21;21.40;99.90
9049;DHT22;4559;47.252;9.592;2022-08-20T07:52:47;21.40;99.90
9049;DHT22;4559;47.252;9.592;2022-08-20T07:55:17;21.50;99.90
9049;DHT22;4559;47.252;9.592;2022-08-20T07:57:43;21.70;99.90
9049;DHT22;4559;47.252;9.592;2022-08-20T08:00:12;21.90;99.90
9049;DHT22;4559;47.252;9.592;2022-08-20T08:02:38;22.10;99.90
9049;DHT22;4559;47.252;9.592;2022-08-20T08:05:05;22.30;99.90
9049;DHT22;4559;47.252;9.592;2022-08-20T08:07:31;22.50;99.90
9049;DHT22;4559;47.252;9.592;2022-08-20T08:09:58;22.60;99.90
9049;DHT22;4559;47.252;9.592;2022-08-20T08:12:29;22.70;99.90
9049;DHT22;4559;47.252;9.592;2022-08-20T08:14:59;22.90;99.90
9049;DHT22;4559;47.252;9.592;2022-08-20T08:17:25;23.10;99.90
9049;DHT22;4559;47.252;9.592;2022-08-20T08:19:51;23.20;99.90
9049;DHT22;4559;47.252;9.592;2022-08-20T08:22:17;23.30;99.90
9049;DHT22;4559;47.252;9.592;2022-08-20T08:24:44;23.40;99.90
9049;DHT22;4559;47.252;9.592;2022-08-20T08:27:12;23.50;99.90
9049;DHT22;4559;47.252;9.592;2022-08-20T08:29:38;23.40;99.90
9049;DHT22;4559;47.252;9.592;2022-08-20T08:32:04;23.50;99.90
9049;DHT22;4559;47.252;9.592;2022-08-20T08:34:32;23.60;99.90
9049;DHT22;4559;47.252;9.592;2022-08-20T08:36:58;23.80;99.90
9049;DHT22;4559;47.252;9.592;2022-08-20T08:39:31;24.00;99.90
9049;DHT22;4559;47.252;9.592;2022-08-20T08:41:58;24.20;99.90
9049;DHT22;4559;47.252;9.592;2022-08-20T08:44:31;24.50;99.90
9049;DHT22;4559;47.252;9.592;2022-08-20T08:47:24;24.50;99.90
9049;DHT22;4559;47.252;9.592;2022-08-20T08:49:47;24.50;99.90
9049;DHT22;4559;47.252;9.592;2022-08-20T08:52:30;24.40;99.90
9049;DHT22;4559;47.252;9.592;2022-08-20T08:55:01;24.20;99.90
9049;DHT22;4559;47.252;9.592;2022-08-20T08:57:27;24.10;99.90
9049;DHT22;4559;47.252;9.592;2022-08-20T09:00:00;24.00;99.90
9049;DHT22;4559;47.252;9.592;2022-08-20T09:02:27;23.90;99.90
9049;DHT22;4559;47.252;9.592;2022-08-20T09:04:57;23.90;99.90
9049;DHT22;4559;47.252;9.592;2022-08-20T09:07:26;24.10;99.90
9049;DHT22;4559;47.252;9.592;2022-08-20T09:09:53;24.00;99.90
9049;DHT22;4559;47.252;9.592;2022-08-20T09:12:22;23.80;99.90
9049;DHT22;4559;47.252;9.592;2022-08-20T09:14:50;23.70;99.90
9049;DHT22;4559;47.252;9.592;2022-08-20T09:17:17;23.60;99.90
9049;DHT22;4559;47.252;9.592;2022-08-20T09:19:43;23.40;99.90
9049;DHT22;4559;47.252;9.592;2022-08-20T09:22:19;23.20;99.90
9049;DHT22;4559;47.252;9.592;2022-08-20T09:24:44;23.10;99.90
9049;DHT22;4559;47.252;9.592;2022-08-20T09:27:11;23.10;99.90
9049;DHT22;4559;47.252;9.592;2022-08-20T09:29:36;23.30;99.90
9049;DHT22;4559;47.252;9.592;2022-08-20T09:32:16;23.50;99.90
9049;DHT22;4559;47.252;9.592;2022-08-20T09:34:44;23.60;99.90
9049;DHT22;4559;47.252;9.592;2022-08-20T09:37:11;23.80;99.90
9049;DHT22;4559;47.252;9.592;2022-08-20T09:39:37;23.80;99.90
9049;DHT22;4559;47.252;9.592;2022-08-20T09:42:24;23.70;99.90
9049;DHT22;4559;47.252;9.592;2022-08-20T09:44:51;23.70;99.90
9049;DHT22;4559;47.252;9.592;2022-08-20T09:47:16;23.60;99.90
9049;DHT22;4559;47.252;9.592;2022-08-20T09:49:43;23.60;99.90
9049;DHT22;4559;47.252;9.592;2022-08-20T09:52:16;23.70;99.90
9049;DHT22;4559;47.252;9.592;2022-08-20T09:54:42;23.70;99.90
9049;DHT22;4559;47.252;9.592;2022-08-20T09:57:08;23.70;99.90
9049;DHT22;4559;47.252;9.592;2022-08-20T09:59:35;23.60;99.90
9049;DHT22;4559;47.252;9.592;2022-08-20T10:02:01;23.60;99.90
9049;DHT22;4559;47.252;9.592;2022-08-20T10:04:27;23.50;99.90
9049;DHT22;4559;47.252;9.592;2022-08-20T10:06:52;23.50;99.90
9049;DHT22;4559;47.252;9.592;2022-08-20T10:09:18;23.40;99.90
9049;DHT22;4559;47.252;9.592;2022-08-20T10:11:44;23.40;99.90
9049;DHT22;4559;47.252;9.592;2022-08-20T10:14:09;23.40;99.90
9049;DHT22;4559;47.252;9.592;2022-08-20T10:16:35;23.20;99.90
9049;DHT22;4559;47.252;9.592;2022-08-20T10:19:03;23.20;99.90
9049;DHT22;4559;47.252;9.592;2022-08-20T10:21:30;23.10;99.90
9049;DHT22;4559;47.252;9.592;2022-08-20T10:23:55;23.00;99.90
9049;DHT22;4559;47.252;9.592;2022-08-20T10:26:21;22.90;99.90
9049;DHT22;4559;47.252;9.592;2022-08-20T10:28:47;22.80;99.90
9049;DHT22;4559;47.252;9.592;2022-08-20T10:31:13;22.70;99.90
9049;DHT22;4559;47.252;9.592;2022-08-20T10:33:39;22.70;99.90
9049;DHT22;4559;47.252;9.592;2022-08-20T10:36:15;22.60;99.90
9049;DHT22;4559;47.252;9.592;2022-08-20T10:38:41;22.60;99.90
9049;DHT22;4559;47.252;9.592;2022-08-20T10:41:07;22.50;99.90
9049;DHT22;4559;47.252;9.592;2022-08-20T10:43:33;22.40;99.90
9049;DHT22;4559;47.252;9.592;2022-08-20T10:45:59;22.30;99.90
9049;DHT22;4559;47.252;9.592;2022-08-20T10:48:25;22.20;99.90
9049;DHT22;4559;47.252;9.592;2022-08-20T10:50:51;22.10;99.90
9049;DHT22;4559;47.252;9.592;2022-08-20T10:53:17;22.00;99.90
9049;DHT22;4559;47.252;9.592;2022-08-20T10:55:43;22.00;99.90
9049;DHT22;4559;47.252;9.592;2022-08-20T10:58:08;21.90;99.90
9049;DHT22;4559;47.252;9.592;2022-08-20T11:00:35;21.80;99.90
9049;DHT22;4559;47.252;9.592;2022-08-20T11:03:01;21.80;99.90
9049;DHT22;4559;47.252;9.592;2022-08-20T11:05:27;21.70;99.90
9049;DHT22;4559;47.252;9.592;2022-08-20T11:07:53;21.70;99.90
9049;DHT22;4559;47.252;9.592;2022-08-20T11:10:25;21.70;99.90
9049;DHT22;4559;47.252;9.592;2022-08-20T11:12:51;21.60;99.90
9049;DHT22;4559;47.252;9.592;2022-08-20T11:15:17;21.70;99.90
9049;DHT22;4559;47.252;9.592;2022-08-20T11:17:43;21.70;99.90
9049;DHT22;4559;47.252;9.592;2022-08-20T11:20:10;21.80;99.90
9049;DHT22;4559;47.252;9.592;2022-08-20T11:22:37;21.80;99.90
9049;DHT22;4559;47.252;9.592;2022-08-20T11:25:04;21.80;99.90
9049;DHT22;4559;47.252;9.592;2022-08-20T11:27:35;21.80;99.90
9049;DHT22;4559;47.252;9.592;2022-08-20T11:30:04;21.90;99.90
9049;DHT22;4559;47.252;9.592;2022-08-20T11:32:30;21.80;99.90
9049;DHT22;4559;47.252;9.592;2022-08-20T11:34:56;21.80;99.90
9049;DHT22;4559;47.252;9.592;2022-08-20T11:37:23;21.80;99.90
9049;DHT22;4559;47.252;9.592;2022-08-20T11:39:49;21.80;99.90
9049;DHT22;4559;47.252;9.592;2022-08-20T11:42:15;21.80;99.90
9049;DHT22;4559;47.252;9.592;2022-08-20T11:44:41;21.80;99.90
9049;DHT22;4559;47.252;9.592;2022-08-20T11:47:09;21.80;99.90
9049;DHT22;4559;47.252;9.592;2022-08-20T11:49:43;21.70;99.90
9049;DHT22;4559;47.252;9.592;2022-08-20T11:52:09;21.70;99.90
9049;DHT22;4559;47.252;9.592;2022-08-20T11:54:34;21.70;99.90
9049;DHT22;4559;47.252;9.592;2022-08-20T11:57:05;21.70;99.90
9049;DHT22;4559;47.252;9.592;2022-08-20T11:59:30;21.60;99.90
9049;DHT22;4559;47.252;9.592;2022-08-20T12:01:56;21.60;99.90
9049;DHT22;4559;47.252;9.592;2022-08-20T12:04:23;21.60;99.90
9049;DHT22;4559;47.252;9.592;2022-08-20T12:06:49;21.60;99.90
9049;DHT22;4559;47.252;9.592;2022-08-20T12:09:14;21.50;99.90
9049;DHT22;4559;47.252;9.592;2022-08-20T12:11:41;21.50;99.90
9049;DHT22;4559;47.252;9.592;2022-08-20T12:14:07;21.40;99.90
9049;DHT22;4559;47.252;9.592;2022-08-20T12:16:33;21.40;99.90
9049;DHT22;4559;47.252;9.592;2022-08-20T12:18:58;21.40;99.90
9049;DHT22;4559;47.252;9.592;2022-08-20T12:21:24;21.30;99.90
9049;DHT22;4559;47.252;9.592;2022-08-20T12:23:50;21.30;99.90
9049;DHT22;4559;47.252;9.592;2022-08-20T12:26:15;21.40;99.90
9049;DHT22;4559;47.252;9.592;2022-08-20T12:28:42;21.40;99.90
9049;DHT22;4559;47.252;9.592;2022-08-20T12:31:07;21.30;99.90
9049;DHT22;4559;47.252;9.592;2022-08-20T12:33:33;21.30;99.90
9049;DHT22;4559;47.252;9.592;2022-08-20T12:35:59;21.30;99.90
9049;DHT22;4559;47.252;9.592;2022-08-20T12:38:24;21.30;99.90
9049;DHT22;4559;47.252;9.592;2022-08-20T12:40:50;21.30;99.90
9049;DHT22;4559;47.252;9.592;2022-08-20T12:43:16;21.20;99.90
9049;DHT22;4559;47.252;9.592;2022-08-20T12:45:41;21.20;99.90
9049;DHT22;4559;47.252;9.592;2022-08-20T12:48:10;21.30;99.90
9049;DHT22;4559;47.252;9.592;2022-08-20T12:50:38;21.30;99.90
9049;DHT22;4559;47.252;9.592;2022-08-20T12:53:04;21.40;99.90
9049;DHT22;4559;47.252;9.592;2022-08-20T12:55:30;21.40;99.90
9049;DHT22;4559;47.252;9.592;2022-08-20T12:57:59;21.40;99.90
9049;DHT22;4559;47.252;9.592;2022-08-20T13:00:28;21.50;99.90
9049;DHT22;4559;47.252;9.592;2022-08-20T13:02:55;21.50;99.90
9049;DHT22;4559;47.252;9.592;2022-08-20T13:05:21;21.60;99.90
9049;DHT22;4559;47.252;9.592;2022-08-20T13:07:47;21.70;99.90
9049;DHT22;4559;47.252;9.592;2022-08-20T13:10:29;21.70;99.90
9049;DHT22;4559;47.252;9.592;2022-08-20T13:12:55;21.80;99.90
9049;DHT22;4559;47.252;9.592;2022-08-20T13:15:21;21.90;99.90
9049;DHT22;4559;47.252;9.592;2022-08-20T13:17:55;21.90;99.90
9049;DHT22;4559;47.252;9.592;2022-08-20T13:20:22;21.90;99.90
9049;DHT22;4559;47.252;9.592;2022-08-20T13:22:55;22.00;99.90
9049;DHT22;4559;47.252;9.592;2022-08-20T13:25:22;22.00;99.90
9049;DHT22;4559;47.252;9.592;2022-08-20T13:27:48;22.00;99.90
9049;DHT22;4559;47.252;9.592;2022-08-20T13:30:16;22.00;99.90
9049;DHT22;4559;47.252;9.592;2022-08-20T13:32:42;22.10;99.90
9049;DHT22;4559;47.252;9.592;2022-08-20T13:35:09;22.20;99.90
9049;DHT22;4559;47.252;9.592;2022-08-20T13:37:36;22.20;99.90
9049;DHT22;4559;47.252;9.592;2022-08-20T13:40:03;22.30;99.90
9049;DHT22;4559;47.252;9.592;2022-08-20T13:42:29;22.40;99.90
9049;DHT22;4559;47.252;9.592;2022-08-20T13:44:55;22.40;99.90
9049;DHT22;4559;47.252;9.592;2022-08-20T13:47:27;22.50;99.90
9049;DHT22;4559;47.252;9.592;2022-08-20T13:50:02;22.50;99.90
9049;DHT22;4559;47.252;9.592;2022-08-20T13:52:30;22.60;99.90
9049;DHT22;4559;47.252;9.592;2022-08-20T13:54:56;22.80;99.90
9049;DHT22;4559;47.252;9.592;2022-08-20T13:57:23;22.90;99.90
9049;DHT22;4559;47.252;9.592;2022-08-20T13:59:51;23.00;99.90
9049;DHT22;4559;47.252;9.592;2022-08-20T14:02:17;23.10;99.90
9049;DHT22;4559;47.252;9.592;2022-08-20T14:04:44;23.20;99.90
9049;DHT22;4559;47.252;9.592;2022-08-20T14:09:43;23.40;99.90
9049;DHT22;4559;47.252;9.592;2022-08-20T14:12:09;23.50;99.90
9049;DHT22;4559;47.252;9.592;2022-08-20T14:14:35;23.60;99.90
9049;DHT22;4559;47.252;9.592;2022-08-20T14:17:31;23.60;99.90
9049;DHT22;4559;47.252;9.592;2022-08-20T14:19:59;23.60;99.90
9049;DHT22;4559;47.252;9.592;2022-08-20T14:22:25;23.60;99.90
9049;DHT22;4559;47.252;9.592;2022-08-20T14:24:51;23.50;99.90
9049;DHT22;4559;47.252;9.592;2022-08-20T14:27:19;23.50;99.90
9049;DHT22;4559;47.252;9.592;2022-08-20T14:29:47;23.40;99.90
9049;DHT22;4559;47.252;9.592;2022-08-20T14:32:14;23.40;99.90
9049;DHT22;4559;47.252;9.592;2022-08-20T14:34:39;23.40;99.90
9049;DHT22;4559;47.252;9.592;2022-08-20T14:37:23;23.30;99.90
9049;DHT22;4559;47.252;9.592;2022-08-20T14:39:51;23.30;99.90
9049;DHT22;4559;47.252;9.592;2022-08-20T14:42:18;23.30;99.90
9049;DHT22;4559;47.252;9.592;2022-08-20T14:44:48;23.30;99.90
9049;DHT22;4559;47.252;9.592;2022-08-20T14:47:20;23.30;99.90
9049;DHT22;4559;47.252;9.592;2022-08-20T14:49:48;23.30;99.90
9049;DHT22;4559;47.252;9.592;2022-08-20T14:52:16;23.30;99.90
9049;DHT22;4559;47.252;9.592;2022-08-20T14:54:42;23.30;99.90
9049;DHT22;4559;47.252;9.592;2022-08-20T14:57:08;23.20;99.90
9049;DHT22;4559;47.252;9.592;2022-08-20T14:59:35;23.10;99.90
9049;DHT22;4559;47.252;9.592;2022-08-20T15:02:05;23.10;99.90
9049;DHT22;4559;47.252;9.592;2022-08-20T15:04:33;23.00;99.90
9049;DHT22;4559;47.252;9.592;2022-08-20T15:06:59;23.00;99.90
9049;DHT22;4559;47.252;9.592;2022-08-20T15:09:28;22.90;99.90
9049;DHT22;4559;47.252;9.592;2022-08-20T15:11:54;22.90;99.90
9049;DHT22;4559;47.252;9.592;2022-08-20T15:14:19;22.90;99.90
9049;DHT22;4559;47.252;9.592;2022-08-20T15:16:45;22.90;99.90
9049;DHT22;4559;47.252;9.592;2022-08-20T15:19:10;22.80;99.90
9049;DHT22;4559;47.252;9.592;2022-08-20T15:21:36;22.80;99.90
9049;DHT22;4559;47.252;9.592;2022-08-20T15:24:02;22.80;99.90
9049;DHT22;4559;47.252;9.592;2022-08-20T15:26:28;22.70;99.90
9049;DHT22;4559;47.252;9.592;2022-08-20T15:28:54;22.60;99.90
9049;DHT22;4559;47.252;9.592;2022-08-20T15:31:19;22.60;99.90
9049;DHT22;4559;47.252;9.592;2022-08-20T15:33:45;22.50;99.90
9049;DHT22;4559;47.252;9.592;2022-08-20T15:36:11;22.40;99.90
9049;DHT22;4559;47.252;9.592;2022-08-20T15:38:36;22.30;99.90
9049;DHT22;4559;47.252;9.592;2022-08-20T15:41:03;22.10;99.90
9049;DHT22;4559;47.252;9.592;2022-08-20T15:43:31;22.00;99.90
9049;DHT22;4559;47.252;9.592;2022-08-20T15:45:58;21.80;99.90
9049;DHT22;4559;47.252;9.592;2022-08-20T15:48:34;21.70;99.90
9049;DHT22;4559;47.252;9.592;2022-08-20T15:56:55;21.50;99.90
9049;DHT22;4559;47.252;9.592;2022-08-20T16:11:48;21.00;99.90
9049;DHT22;4559;47.252;9.592;2022-08-20T16:14:23;20.90;99.90
9049;DHT22;4559;47.252;9.592;2022-08-20T16:16:56;20.90;99.90
9049;DHT22;4559;47.252;9.592;2022-08-20T16:19:35;20.80;99.90
9049;DHT22;4559;47.252;9.592;2022-08-20T16:22:04;20.80;99.90
9049;DHT22;4559;47.252;9.592;2022-08-20T16:24:32;20.80;99.90
9049;DHT22;4559;47.252;9.592;2022-08-20T16:27:26;20.80;99.90